Velkommen til

Stord Flyklubb

Om oss

Historien til Stord Flyklubb

Klubbens aner strekker seg tilbake til 1969 med sjøfly. Siden har vi sett vanlige motorfly og glidefly, men det er sportsfly som er hovedfokuset i dag

"Me har gjort det som menneskja har drøymd om frå gamalt av, det dei misunner fuglane, det vil seia, me har floge"

Salman Rushdie

Bli pilot

Alle kan lære å fly!

Ta en prøvetur hos oss og se hvor moro det er! Prøveturen gir deg en mulighet til å se om dette er noe du har lyst til å gå videre med.

Teorien tas av de fleste som hjemmeundervisning. Nytt læremateriell gjør opplæringen både enklere og mer strømlinjeformet.

Praksis kan påbegynnes mens man tar teorien, men teorien må være bestått før man kan fly solo. 

METAR Haugesund
ENHD 060050Z AUTO 09009KT 9999 -RA SCT011/// 04/02 Q1002 ENHD 060020Z AUTO 08004KT 9999 DZ FEW011/// 04/02 Q1002 ENHD 052350Z AUTO 10003KT 030V160 9999 -RA FEW011/// SCT024/// 04/02 Q1001 ENHD 052320Z AUTO 03010KT 9999 BKN045/// 04/02 Q1001 ENHD 052250Z AUTO 02011KT 9999 FEW038/// SCT057/// 04/02 Q1001 ENHD 052220Z AUTO 02010KT 9999 FEW041/// 04/02 Q1002 RERA
METAR Flesland
ENBR 060050Z VRB03KT 9999 FEW013 SCT040 BKN057 02/02 Q1002 RERA RMK WIND 1200FT 05006KT ENBR 060020Z VRB03KT 9999 FEW014 SCT043 BKN056 02/01 Q1002 RMK WIND 1200FT 04010KT ENBR 052350Z 02005KT 9999 -RA FEW013 SCT024 BKN036 02/01 Q1003 RMK WIND 1200FT 07007KT ENBR 052320Z VRB02KT 9999 -RA FEW013 BKN028 03/01 Q1003 RMK WIND 1200FT 10007KT ENBR 052250Z 11005KT 9999 -SHRA FEW013 BKN024 03/01 Q1004 RMK WIND 1200FT 11012KT ENBR 052220Z 12007KT 9999 -SHRA FEW007 SCT015 BKN028 03/01 Q1004 RMK WIND 1200FT 14018KT TAF ENBR 0600/0624 11005KT 9999 -SHRA FEW015 BKN030 PROB40 TEMPO 0600/0607 SHRA SCT020CB BKN025